Time;durP1;ratioP1;P1;durP2;ratioP2;P2;SDS_P1;SDS_P2;PMS_P1;PMS_P2;Temp;Humidity;BMP_temperature;BMP_pressure;BME280_temperature;BME280_humidity;BME280_pressure;Samples;Min_cycle;Max_cycle;Signal;HPM_P1;HPM_P2
2023/04/30 05:02:22;;;;;;;13.48;8.45;;;11.70;99.90;;;;;;5468641;23;20063;-71
2023/04/30 05:04:49;;;;;;;13.93;8.23;;;11.70;99.90;;;;;;4945497;29;20083;-69
2023/04/30 05:07:17;;;;;;;12.50;8.87;;;11.70;99.90;;;;;;4947700;29;20027;-71
2023/04/30 05:09:45;;;;;;;12.93;8.85;;;11.70;99.90;;;;;;4968637;28;20810;-71
2023/04/30 05:12:11;;;;;;;11.60;8.13;;;11.70;99.90;;;;;;4964541;28;20059;-71
2023/04/30 05:14:37;;;;;;;12.02;8.43;;;11.80;99.90;;;;;;4964397;29;20027;-70
2023/04/30 05:17:03;;;;;;;13.43;8.13;;;11.80;99.90;;;;;;4964546;29;20031;-70
2023/04/30 05:19:28;;;;;;;11.30;7.75;;;11.80;99.90;;;;;;4964405;29;20317;-70
2023/04/30 05:21:54;;;;;;;11.13;7.45;;;11.80;99.90;;;;;;4964455;29;20035;-71
2023/04/30 05:24:20;;;;;;;11.85;7.53;;;11.80;99.90;;;;;;4965027;29;20096;-70
2023/04/30 05:26:45;;;;;;;11.98;7.78;;;11.90;99.90;;;;;;4964188;29;20027;-71
2023/04/30 05:29:11;;;;;;;11.23;7.57;;;12.00;99.90;;;;;;4964432;29;20197;-71
2023/04/30 05:31:37;;;;;;;13.18;7.65;;;12.10;99.90;;;;;;4964429;29;20031;-71
2023/04/30 05:34:03;;;;;;;11.55;7.85;;;12.10;99.90;;;;;;4965996;28;20107;-71
2023/04/30 05:36:29;;;;;;;10.40;7.10;;;12.30;99.90;;;;;;4967946;29;20027;-69
2023/04/30 05:38:55;;;;;;;11.82;7.43;;;12.40;99.90;;;;;;4968440;29;20045;-71
2023/04/30 05:41:21;;;;;;;10.95;7.57;;;12.40;99.90;;;;;;4968491;29;20050;-71
2023/04/30 05:43:46;;;;;;;11.23;8.07;;;12.50;99.90;;;;;;4967663;29;20328;-69
2023/04/30 05:46:12;;;;;;;12.65;8.32;;;12.60;99.90;;;;;;4968132;29;20225;-71
2023/04/30 05:48:38;;;;;;;11.50;7.97;;;12.70;99.90;;;;;;4967925;29;20082;-70
2023/04/30 05:51:07;;;;;;;11.05;7.60;;;12.70;99.90;;;;;;4968089;29;20094;-70
2023/04/30 05:53:33;;;;;;;12.38;7.70;;;12.70;99.90;;;;;;4967812;29;20027;-70
2023/04/30 05:55:59;;;;;;;9.95;7.20;;;12.80;99.90;;;;;;4968429;29;20034;-71
2023/04/30 05:58:24;;;;;;;9.48;6.57;;;12.80;99.90;;;;;;4950957;29;20198;-71
2023/04/30 06:00:53;;;;;;;10.63;7.20;;;12.90;99.90;;;;;;4967318;29;20031;-71
2023/04/30 06:03:19;;;;;;;;;;;13.10;99.90;;;;;;4967985;29;20047;-71
2023/04/30 06:05:45;;;;;;;11.75;7.68;;;13.20;99.90;;;;;;4967172;29;19974;-70
2023/04/30 06:08:11;;;;;;;9.70;7.13;;;13.30;99.90;;;;;;4967873;29;20075;-71
2023/04/30 06:10:37;;;;;;;9.93;7.60;;;13.30;99.90;;;;;;4967229;29;20035;-75
2023/04/30 06:13:03;;;;;;;10.50;7.53;;;13.30;99.90;;;;;;4968008;29;20181;-75
2023/04/30 06:15:29;;;;;;;9.90;6.78;;;13.40;99.90;;;;;;4967135;29;20027;-74
2023/04/30 06:17:55;;;;;;;10.85;7.28;;;13.40;99.90;;;;;;4967657;29;20221;-68
2023/04/30 06:20:21;;;;;;;10.63;7.57;;;13.60;99.90;;;;;;4967598;29;20058;-72
2023/04/30 06:22:46;;;;;;;10.93;7.10;;;13.60;99.90;;;;;;4967072;29;20035;-69
2023/04/30 06:25:12;;;;;;;11.38;6.65;;;13.70;99.90;;;;;;4967747;29;20062;-70
2023/04/30 06:27:38;;;;;;;9.13;6.72;;;13.80;99.90;;;;;;4967011;29;20039;-70
2023/04/30 06:30:04;;;;;;;10.52;7.28;;;13.90;99.90;;;;;;4967490;29;20069;-70
2023/04/30 06:32:30;;;;;;;8.43;5.72;;;13.90;99.90;;;;;;4966862;29;20019;-71
2023/04/30 06:34:56;;;;;;;9.80;6.43;;;14.00;99.90;;;;;;4967337;29;20094;-69
2023/04/30 06:37:21;;;;;;;9.27;6.53;;;14.00;99.90;;;;;;4967384;29;20031;-70
2023/04/30 06:39:48;;;;;;;9.48;7.22;;;14.10;99.90;;;;;;4959780;29;20027;-70
2023/04/30 06:42:14;;;;;;;10.00;6.88;;;14.20;99.90;;;;;;4967389;29;20035;-70
2023/04/30 06:44:39;;;;;;;9.57;6.82;;;14.20;99.90;;;;;;4966629;28;20206;-71
2023/04/30 06:47:05;;;;;;;9.45;6.70;;;14.20;99.90;;;;;;4966787;29;20045;-70
2023/04/30 06:49:31;;;;;;;9.75;6.32;;;14.30;99.90;;;;;;4967261;29;20023;-71
2023/04/30 06:51:57;;;;;;;8.43;6.38;;;14.40;99.90;;;;;;4967077;29;20317;-70
2023/04/30 06:54:25;;;;;;;8.07;5.95;;;14.70;99.90;;;;;;4950061;29;20031;-69
2023/04/30 06:56:51;;;;;;;7.88;6.28;;;14.80;99.90;;;;;;4966666;28;20090;-70
2023/04/30 06:59:17;;;;;;;7.60;6.05;;;15.00;99.90;;;;;;4967239;29;20072;-70
2023/04/30 07:01:43;;;;;;;8.40;5.70;;;15.10;99.90;;;;;;4966168;29;20209;-73
2023/04/30 07:04:09;;;;;;;8.68;5.75;;;15.20;99.50;;;;;;4966360;29;20035;-70
2023/04/30 07:06:34;;;;;;;9.13;5.93;;;15.20;99.50;;;;;;4966112;29;20102;-69
2023/04/30 07:09:01;;;;;;;12.32;6.03;;;15.30;99.10;;;;;;4949510;29;20347;-70
2023/04/30 07:11:27;;;;;;;8.75;6.00;;;15.30;99.20;;;;;;4966809;29;20190;-70
2023/04/30 07:13:52;;;;;;;7.35;5.40;;;15.30;99.10;;;;;;4965918;29;20034;-70
2023/04/30 07:16:18;;;;;;;8.73;5.35;;;15.30;98.80;;;;;;4949646;29;20035;-70
2023/04/30 07:18:47;;;;;;;8.15;5.95;;;15.30;98.50;;;;;;4965842;29;20023;-70
2023/04/30 07:21:13;;;;;;;9.05;6.03;;;15.30;98.10;;;;;;4966499;29;20042;-69
2023/04/30 07:23:39;;;;;;;8.65;5.57;;;15.30;98.20;;;;;;4965759;29;20221;-71
2023/04/30 07:26:05;;;;;;;9.63;6.38;;;15.30;98.00;;;;;;4966232;29;20098;-71
2023/04/30 07:28:30;;;;;;;9.60;5.75;;;15.40;98.00;;;;;;4965701;28;20042;-69
2023/04/30 07:30:56;;;;;;;8.80;6.10;;;15.30;97.90;;;;;;4971467;28;20046;-70
2023/04/30 07:33:23;;;;;;;9.30;5.70;;;15.30;98.00;;;;;;4960097;28;20031;-72
2023/04/30 07:35:50;;;;;;;9.45;5.70;;;15.10;97.90;;;;;;4965796;29;20030;-70
2023/04/30 07:38:17;;;;;;;8.40;5.30;;;15.30;97.70;;;;;;4965907;29;20035;-73
2023/04/30 07:40:43;;;;;;;7.10;5.23;;;15.40;97.90;;;;;;4965345;29;20229;-73
2023/04/30 07:43:09;;;;;;;8.73;5.57;;;15.50;97.80;;;;;;4965841;29;20051;-77
2023/04/30 07:45:35;;;;;;;7.40;5.28;;;15.70;97.20;;;;;;4965678;29;20035;-75
2023/04/30 07:48:01;;;;;;;8.77;5.03;;;16.00;96.40;;;;;;4966286;28;20035;-75
2023/04/30 07:50:32;;;;;;;7.35;5.07;;;16.30;95.90;;;;;;4948805;29;20031;-72
2023/04/30 07:52:59;;;;;;;6.32;4.65;;;16.40;95.40;;;;;;4965905;29;20035;-76
2023/04/30 07:55:25;;;;;;;6.38;4.35;;;16.40;94.70;;;;;;4965751;29;20019;-75
2023/04/30 07:57:51;;;;;;;6.82;4.88;;;16.40;94.80;;;;;;4964045;28;20198;-75
2023/04/30 08:00:16;;;;;;;7.85;4.50;;;16.40;94.60;;;;;;4965385;29;20360;-74
2023/04/30 08:02:47;;;;;;;6.85;5.00;;;16.40;94.80;;;;;;4965112;29;20182;-70
2023/04/30 08:05:12;;;;;;;7.22;5.03;;;16.40;94.60;;;;;;4965920;29;20042;-71
2023/04/30 08:07:38;;;;;;;7.57;4.90;;;16.40;94.50;;;;;;4968403;28;20030;-72
2023/04/30 08:10:05;;;;;;;6.95;4.30;;;16.40;94.60;;;;;;4970863;28;20035;-73
2023/04/30 08:12:30;;;;;;;6.68;4.60;;;16.50;94.10;;;;;;4965741;29;20043;-76
2023/04/30 08:15:03;;;;;;;6.38;4.60;;;16.40;93.80;;;;;;4965385;29;20034;-73
2023/04/30 08:17:30;;;;;;;8.57;4.40;;;16.40;93.00;;;;;;4948386;29;20257;-75
2023/04/30 08:20:08;;;;;;;7.72;5.07;;;16.30;93.70;;;;;;5080498;28;20616;-75
2023/04/30 08:22:34;;;;;;;5.15;3.95;;;16.50;93.30;;;;;;5080050;28;20036;-74
2023/04/30 08:25:00;;;;;;;6.15;4.20;;;16.50;93.80;;;;;;5079645;28;20392;-77
2023/04/30 08:27:27;;;;;;;6.28;4.47;;;16.50;93.70;;;;;;5080287;28;20287;-78
2023/04/30 08:29:52;;;;;;;6.05;4.13;;;16.60;93.30;;;;;;5078439;28;20033;-73
2023/04/30 08:32:18;;;;;;;5.57;3.72;;;16.70;92.80;;;;;;5079885;28;20051;-74
2023/04/30 08:34:45;;;;;;;6.07;3.83;;;16.90;92.50;;;;;;5079674;28;20029;-75
2023/04/30 08:37:10;;;;;;;6.18;3.70;;;17.00;91.90;;;;;;5080034;28;20052;-74
2023/04/30 08:39:36;;;;;;;5.28;3.38;;;17.30;90.80;;;;;;5079513;28;20027;-74
2023/04/30 08:42:07;;;;;;;5.30;3.28;;;17.40;91.10;;;;;;5079994;28;20199;-74
2023/04/30 08:44:35;;;;;;;4.97;3.20;;;17.60;90.60;;;;;;5079839;28;20099;-73
2023/04/30 08:47:02;;;;;;;5.55;3.13;;;17.60;89.90;;;;;;5079440;28;20070;-75
2023/04/30 08:49:31;;;;;;;4.78;2.30;;;17.80;89.90;;;;;;5079677;28;20051;-75
2023/04/30 08:52:00;;;;;;;4.20;3.03;;;17.90;86.00;;;;;;5079278;28;20031;-74
2023/04/30 08:54:28;;;;;;;5.25;2.65;;;18.00;84.70;;;;;;5080380;28;20044;-74
2023/04/30 08:56:54;;;;;;;4.85;2.40;;;17.80;85.20;;;;;;5077044;28;20086;-75
2023/04/30 08:59:20;;;;;;;3.08;2.00;;;18.00;83.50;;;;;;5093942;28;20055;-74
2023/04/30 09:01:46;;;;;;;3.33;1.92;;;18.00;81.10;;;;;;5072214;28;20246;-75
2023/04/30 09:04:12;;;;;;;4.38;2.80;;;18.10;81.90;;;;;;5059090;28;20025;-74
2023/04/30 09:06:37;;;;;;;3.60;2.40;;;18.30;81.10;;;;;;5058831;28;20079;-75
2023/04/30 09:09:12;;;;;;;2.92;2.00;;;18.50;80.50;;;;;;5059316;28;20044;-73
2023/04/30 09:11:38;;;;;;;2.58;1.77;;;19.00;80.00;;;;;;5058039;28;20022;-74
2023/04/30 09:14:04;;;;;;;3.33;2.53;;;19.20;80.20;;;;;;5058042;28;20081;-74
2023/04/30 09:16:46;;;;;;;5.93;2.45;;;19.30;79.60;;;;;;5059542;28;20202;-73
2023/04/30 09:19:26;;;;;;;3.58;2.42;;;19.00;79.10;;;;;;5059039;28;20242;-71
2023/04/30 09:21:52;;;;;;;3.50;2.00;;;18.90;80.50;;;;;;5059334;28;20024;-71
2023/04/30 09:24:18;;;;;;;3.53;1.85;;;19.20;78.40;;;;;;5059214;28;20067;-71
2023/04/30 09:26:48;;;;;;;4.38;2.05;;;19.20;76.60;;;;;;5058810;28;20025;-72
2023/04/30 09:29:14;;;;;;;3.35;1.95;;;19.40;76.50;;;;;;5056831;28;20060;-71
2023/04/30 09:31:45;;;;;;;3.85;2.22;;;19.20;77.10;;;;;;5045026;28;20029;-71
2023/04/30 09:34:12;;;;;;;3.22;2.00;;;19.30;76.60;;;;;;5045847;28;20029;-74
2023/04/30 09:36:54;;;;;;;3.08;1.95;;;19.30;75.70;;;;;;5045941;28;20025;-72
2023/04/30 09:39:19;;;;;;;3.28;1.92;;;19.50;76.20;;;;;;5045232;28;20211;-72
2023/04/30 09:41:45;;;;;;;3.78;1.63;;;19.60;75.50;;;;;;5044627;28;20048;-72
2023/04/30 09:44:27;;;;;;;2.35;1.60;;;19.70;74.90;;;;;;5045720;28;20250;-72
2023/04/30 09:46:54;;;;;;;3.40;1.80;;;19.70;75.20;;;;;;5044567;28;20096;-71
2023/04/30 09:49:20;;;;;;;2.58;1.67;;;20.00;74.00;;;;;;5045562;28;20029;-72
2023/04/30 09:52:00;;;;;;;3.55;1.90;;;19.80;73.50;;;;;;5044843;28;20048;-72
2023/04/30 09:54:29;;;;;;;2.70;1.80;;;19.90;73.10;;;;;;5045409;28;20037;-71
2023/04/30 09:56:57;;;;;;;3.45;1.73;;;19.60;74.00;;;;;;5044624;28;20033;-71
2023/04/30 09:59:31;;;;;;;2.73;1.93;;;19.60;74.90;;;;;;5045307;28;20029;-73
2023/04/30 10:02:02;;;;;;;4.20;1.50;;;19.60;72.50;;;;;;5044616;28;20464;-72
2023/04/30 10:04:39;;;;;;;2.45;1.40;;;19.70;72.90;;;;;;5044921;28;20037;-71
2023/04/30 10:07:09;;;;;;;2.40;1.25;;;19.80;74.20;;;;;;5041759;28;20308;-72
2023/04/30 10:09:40;;;;;;;2.33;1.50;;;20.00;73.30;;;;;;5044826;28;20227;-73
2023/04/30 10:12:12;;;;;;;2.58;1.40;;;20.10;73.00;;;;;;5044560;28;20040;-73
2023/04/30 10:14:41;;;;;;;3.65;1.50;;;20.20;72.30;;;;;;5045274;28;20041;-73
2023/04/30 10:17:15;;;;;;;3.00;1.25;;;20.30;70.00;;;;;;5046599;28;20034;-72
2023/04/30 10:19:46;;;;;;;2.85;1.52;;;20.20;71.00;;;;;;5044918;28;20223;-72
2023/04/30 10:22:13;;;;;;;2.58;1.40;;;20.30;71.60;;;;;;5045134;28;20033;-70
2023/04/30 10:24:40;;;;;;;2.78;1.48;;;20.00;71.60;;;;;;5045103;28;20037;-70
2023/04/30 10:27:06;;;;;;;2.97;1.50;;;20.00;70.60;;;;;;5043969;28;20096;-70
2023/04/30 10:29:32;;;;;;;2.70;1.50;;;19.70;70.90;;;;;;5042816;28;20333;-71
2023/04/30 10:32:00;;;;;;;7.80;2.58;;;19.70;72.30;;;;;;5043834;28;20048;-72
2023/04/30 10:35:01;;;;;;;2.88;1.60;;;19.60;72.20;;;;;;5044420;28;20307;-71
2023/04/30 10:37:36;;;;;;;2.60;1.70;;;19.80;71.60;;;;;;5043779;28;20170;-72
2023/04/30 10:40:04;;;;;;;7.38;6.18;;;19.90;72.30;;;;;;5044141;28;20214;-72
2023/04/30 10:42:30;;;;;;;10.93;8.23;;;19.90;71.70;;;;;;5043639;28;20039;-72
2023/04/30 10:44:56;;;;;;;5.88;4.70;;;19.80;72.40;;;;;;5044197;28;20346;-72
2023/04/30 10:47:27;;;;;;;4.93;3.13;;;19.90;72.30;;;;;;5043169;28;20041;-72
2023/04/30 10:50:07;;;;;;;3.88;2.25;;;20.00;72.90;;;;;;5042654;28;20044;-72
2023/04/30 10:52:33;;;;;;;3.45;2.00;;;20.00;71.80;;;;;;5044188;28;20275;-72
2023/04/30 10:55:07;;;;;;;3.60;1.92;;;20.10;71.10;;;;;;5043765;28;20021;-72
2023/04/30 10:57:41;;;;;;;4.97;2.40;;;20.40;71.70;;;;;;5043838;28;20370;-72
2023/04/30 11:00:08;;;;;;;3.28;2.05;;;20.50;71.50;;;;;;5043529;28;20203;-72
2023/04/30 11:02:46;;;;;;;2.70;1.70;;;20.50;72.70;;;;;;5044116;28;20276;-72
2023/04/30 11:05:14;;;;;;;4.88;1.95;;;20.60;70.70;;;;;;5044102;28;20029;-73
2023/04/30 11:07:50;;;;;;;5.60;2.23;;;20.70;70.30;;;;;;5043792;28;20219;-71
2023/04/30 11:10:20;;;;;;;3.45;2.10;;;20.40;71.20;;;;;;5038458;28;20025;-71
2023/04/30 11:12:53;;;;;;;3.70;2.10;;;20.50;70.60;;;;;;5043258;28;20030;-72
2023/04/30 11:15:21;;;;;;;4.53;2.50;;;20.60;71.80;;;;;;5043996;28;20025;-72
2023/04/30 11:17:48;;;;;;;6.60;4.00;;;20.80;70.50;;;;;;5042981;28;20317;-71
2023/04/30 11:20:19;;;;;;;4.38;2.60;;;20.90;70.20;;;;;;5044039;28;20029;-71
2023/04/30 11:22:45;;;;;;;3.03;1.98;;;20.90;70.20;;;;;;5043694;28;20017;-72
2023/04/30 11:25:12;;;;;;;6.15;2.58;;;20.90;69.50;;;;;;5043609;28;20180;-72
2023/04/30 11:27:45;;;;;;;3.97;2.28;;;21.20;69.40;;;;;;5043662;28;20025;-72
2023/04/30 11:30:13;;;;;;;4.63;2.78;;;21.00;68.80;;;;;;5042404;28;20064;-71
2023/04/30 11:32:40;;;;;;;4.40;2.70;;;20.60;69.40;;;;;;5043744;28;20017;-72
2023/04/30 11:35:07;;;;;;;4.75;2.33;;;20.40;70.50;;;;;;5042741;28;20255;-73
2023/04/30 11:37:35;;;;;;;4.22;2.40;;;20.40;70.60;;;;;;5043323;28;20040;-73
2023/04/30 11:40:03;;;;;;;5.82;2.20;;;20.60;69.60;;;;;;5042822;28;20059;-71
2023/04/30 11:42:35;;;;;;;;;;;20.50;70.50;;;;;;5043902;28;20390;-72
2023/04/30 11:45:09;;;;;;;3.75;2.20;;;20.70;70.00;;;;;;5042840;28;19905;-71
2023/04/30 11:47:44;;;;;;;3.65;2.00;;;20.80;70.50;;;;;;5043405;28;20048;-72
2023/04/30 11:50:15;;;;;;;3.60;2.08;;;21.10;69.80;;;;;;5042430;28;20085;-72
2023/04/30 11:52:47;;;;;;;3.75;2.08;;;21.00;69.40;;;;;;5042828;28;20215;-72
2023/04/30 11:55:18;;;;;;;4.35;2.00;;;20.80;69.50;;;;;;5042836;28;20223;-71
2023/04/30 11:57:49;;;;;;;3.67;2.30;;;20.90;69.50;;;;;;5043204;28;20017;-72
2023/04/30 12:00:19;;;;;;;3.83;2.15;;;20.60;69.80;;;;;;5042854;28;20041;-73
2023/04/30 12:02:47;;;;;;;3.30;2.10;;;20.50;70.00;;;;;;5042763;28;20299;-72
2023/04/30 12:05:17;;;;;;;3.13;2.42;;;20.30;70.10;;;;;;5042635;28;20017;-71
2023/04/30 12:07:56;;;;;;;3.80;1.75;;;20.40;70.40;;;;;;5041817;28;20035;-72
2023/04/30 12:10:24;;;;;;;2.58;1.50;;;20.60;69.80;;;;;;5037306;28;20029;-71
2023/04/30 12:12:51;;;;;;;5.32;1.92;;;20.70;69.30;;;;;;5042520;28;20051;-71
2023/04/30 12:15:25;;;;;;;3.50;1.90;;;20.80;68.20;;;;;;5043042;28;20029;-72
2023/04/30 12:17:51;;;;;;;4.68;1.95;;;20.70;68.80;;;;;;5041904;28;20211;-71
2023/04/30 12:20:18;;;;;;;4.68;2.10;;;20.80;69.40;;;;;;5043037;28;20270;-72
2023/04/30 12:22:44;;;;;;;3.90;1.90;;;21.10;67.50;;;;;;5041595;28;20029;-72
2023/04/30 12:25:18;;;;;;;5.25;1.90;;;21.30;68.80;;;;;;5042025;28;20080;-71
2023/04/30 12:27:49;;;;;;;4.10;1.60;;;21.60;67.10;;;;;;5042977;28;20044;-71
2023/04/30 12:30:20;;;;;;;2.70;1.70;;;21.20;68.50;;;;;;5042388;28;20056;-71
2023/04/30 12:32:49;;;;;;;3.47;1.70;;;21.20;67.20;;;;;;5042789;28;20326;-71
2023/04/30 12:35:20;;;;;;;2.38;1.60;;;21.30;67.40;;;;;;5042981;28;20029;-71
2023/04/30 12:37:49;;;;;;;3.03;1.85;;;21.10;67.50;;;;;;5042595;28;20215;-72
2023/04/30 12:40:15;;;;;;;4.28;1.75;;;21.00;67.70;;;;;;5040841;28;20033;-72
2023/04/30 12:42:42;;;;;;;3.40;1.98;;;21.10;67.90;;;;;;5043005;28;20383;-71
2023/04/30 12:45:09;;;;;;;3.83;2.00;;;21.20;67.80;;;;;;5042466;28;20025;-71
2023/04/30 12:47:39;;;;;;;3.13;1.88;;;21.00;68.60;;;;;;5049601;28;20048;-70
2023/04/30 12:50:10;;;;;;;2.80;1.80;;;21.00;67.40;;;;;;5047936;28;20021;-72
2023/04/30 12:52:36;;;;;;;2.67;1.83;;;21.00;69.90;;;;;;5042579;28;20026;-71
2023/04/30 12:55:19;;;;;;;2.88;2.17;;;21.20;69.60;;;;;;5042084;28;20028;-71
2023/04/30 12:58:12;;;;;;;3.88;2.22;;;21.40;67.90;;;;;;5033719;28;20030;-71
2023/04/30 13:00:50;;;;;;;2.78;1.73;;;21.20;68.10;;;;;;5040538;28;20044;-71
2023/04/30 13:03:19;;;;;;;3.08;1.88;;;20.80;69.00;;;;;;5041360;28;20200;-72
2023/04/30 13:05:48;;;;;;;3.42;1.92;;;20.80;69.90;;;;;;5044323;28;20096;-72
2023/04/30 13:08:13;;;;;;;2.83;2.00;;;21.00;69.30;;;;;;5045973;28;20053;-71
2023/04/30 13:10:39;;;;;;;2.50;1.80;;;21.30;68.70;;;;;;5046488;28;20033;-72
2023/04/30 13:13:05;;;;;;;3.08;1.85;;;21.40;67.30;;;;;;5046488;28;20017;-71
2023/04/30 13:15:31;;;;;;;2.75;1.67;;;21.40;66.90;;;;;;5046315;28;20040;-71
2023/04/30 13:17:56;;;;;;;2.67;2.00;;;21.40;67.60;;;;;;5045979;28;20310;-71
2023/04/30 13:20:23;;;;;;;3.53;1.70;;;21.50;67.70;;;;;;5046414;28;20312;-72
2023/04/30 13:22:50;;;;;;;3.10;1.75;;;21.60;67.50;;;;;;5045844;28;20033;-71
2023/04/30 13:25:16;;;;;;;3.97;1.55;;;22.90;66.30;;;;;;5044001;28;20025;-71
2023/04/30 13:27:42;;;;;;;3.90;1.58;;;24.80;63.40;;;;;;5045376;28;20028;-71
2023/04/30 13:30:09;;;;;;;2.42;1.35;;;26.00;60.70;;;;;;5044688;28;20029;-71
2023/04/30 13:32:35;;;;;;;2.92;1.50;;;26.80;59.80;;;;;;5045574;28;20242;-70
2023/04/30 13:35:02;;;;;;;3.25;1.85;;;27.70;58.00;;;;;;5045452;28;20311;-72
2023/04/30 13:37:30;;;;;;;3.50;2.20;;;27.10;57.80;;;;;;5045395;28;20244;-72
2023/04/30 13:39:56;;;;;;;3.97;1.90;;;26.50;57.60;;;;;;5045377;28;20033;-72
2023/04/30 13:42:24;;;;;;;3.03;1.65;;;25.90;58.20;;;;;;5045793;28;20041;-71
2023/04/30 13:44:51;;;;;;;2.90;1.45;;;25.60;58.60;;;;;;5045558;28;20315;-72
2023/04/30 13:47:17;;;;;;;3.17;1.35;;;25.70;59.00;;;;;;5059946;28;20104;-71
2023/04/30 13:49:42;;;;;;;3.63;1.70;;;25.70;57.60;;;;;;5045675;28;20265;-73
2023/04/30 13:52:08;;;;;;;2.38;1.42;;;25.10;58.30;;;;;;5044639;28;20017;-72
2023/04/30 13:54:34;;;;;;;3.00;1.35;;;25.00;58.30;;;;;;5045596;28;20037;-71
2023/04/30 13:57:00;;;;;;;3.20;2.10;;;25.20;58.40;;;;;;5043162;28;20299;-72
2023/04/30 13:59:25;;;;;;;3.30;1.50;;;24.90;59.00;;;;;;5034972;28;20052;-70
2023/04/30 14:01:51;;;;;;;2.75;1.50;;;24.40;60.30;;;;;;5047436;28;20029;-69
2023/04/30 14:04:17;;;;;;;2.95;1.80;;;23.70;61.20;;;;;;5047213;28;20060;-71
2023/04/30 14:06:43;;;;;;;4.00;2.38;;;23.40;61.00;;;;;;5045447;28;20017;-71
2023/04/30 14:09:08;;;;;;;3.40;1.60;;;23.20;61.20;;;;;;5044072;28;20056;-71
2023/04/30 14:11:34;;;;;;;4.68;1.90;;;22.60;62.30;;;;;;5044896;28;20029;-71
2023/04/30 14:14:00;;;;;;;2.25;1.40;;;22.50;63.10;;;;;;5043360;28;20087;-70
2023/04/30 14:16:26;;;;;;;2.92;1.45;;;22.50;62.80;;;;;;5045019;28;20036;-71
2023/04/30 14:18:51;;;;;;;2.70;1.50;;;22.00;63.40;;;;;;5044634;28;20335;-71
2023/04/30 14:21:17;;;;;;;2.85;1.80;;;22.00;64.90;;;;;;5044146;28;20029;-72
2023/04/30 14:23:45;;;;;;;3.53;1.65;;;22.40;63.10;;;;;;5045003;28;20072;-71
2023/04/30 14:26:11;;;;;;;5.13;1.52;;;22.50;62.10;;;;;;5045654;28;20214;-72
2023/04/30 14:28:37;;;;;;;3.90;1.60;;;22.60;62.10;;;;;;5044415;28;20060;-71
2023/04/30 14:31:03;;;;;;;2.33;1.50;;;22.50;62.70;;;;;;5044043;28;20033;-72
2023/04/30 14:33:30;;;;;;;2.83;1.50;;;22.90;61.80;;;;;;5044661;28;20025;-72
2023/04/30 14:35:58;;;;;;;3.40;1.58;;;23.70;61.60;;;;;;5044947;28;20100;-71
2023/04/30 14:38:24;;;;;;;2.92;1.67;;;23.70;59.60;;;;;;5044264;28;20067;-72
2023/04/30 14:40:50;;;;;;;3.58;1.50;;;24.10;59.50;;;;;;5044406;28;20037;-71
2023/04/30 14:43:16;;;;;;;3.75;1.40;;;24.30;58.70;;;;;;5044262;28;20036;-73
2023/04/30 14:45:43;;;;;;;2.47;1.40;;;24.90;58.60;;;;;;5044046;28;20057;-72
2023/04/30 14:48:09;;;;;;;2.38;1.50;;;25.50;57.40;;;;;;5043830;28;20040;-72
2023/04/30 14:50:35;;;;;;;2.80;1.23;;;25.80;58.70;;;;;;5044372;28;20029;-73
2023/04/30 14:53:00;;;;;;;4.80;1.40;;;26.80;57.00;;;;;;5043830;28;20303;-71
2023/04/30 14:55:26;;;;;;;2.13;1.15;;;27.70;55.30;;;;;;5044305;28;20046;-72
2023/04/30 14:57:52;;;;;;;2.78;1.27;;;28.00;54.80;;;;;;5044001;28;20029;-72
2023/04/30 15:00:18;;;;;;;2.38;1.13;;;28.00;56.20;;;;;;5043915;28;20025;-73
2023/04/30 15:02:43;;;;;;;2.58;1.42;;;28.10;54.40;;;;;;5042990;28;20029;-73
2023/04/30 15:05:09;;;;;;;3.72;2.00;;;28.70;53.50;;;;;;5043323;28;20053;-71
2023/04/30 15:07:35;;;;;;;2.17;1.30;;;28.40;53.10;;;;;;5044211;28;20104;-73
2023/04/30 15:10:02;;;;;;;2.55;1.50;;;28.60;53.20;;;;;;5043585;28;20044;-73
2023/04/30 15:12:27;;;;;;;1.85;1.17;;;27.70;53.20;;;;;;5042687;28;20258;-72
2023/04/30 15:14:53;;;;;;;2.42;1.27;;;27.40;54.00;;;;;;5042796;28;20199;-73
2023/04/30 15:17:20;;;;;;;3.90;1.40;;;27.70;54.80;;;;;;5043350;28;20271;-73
2023/04/30 15:19:46;;;;;;;1.92;1.20;;;27.80;53.70;;;;;;5043296;28;20366;-74
2023/04/30 15:22:12;;;;;;;2.72;1.35;;;28.40;53.80;;;;;;5042888;28;20030;-72
2023/04/30 15:24:37;;;;;;;2.47;1.25;;;28.60;53.00;;;;;;5043643;28;20213;-72
2023/04/30 15:27:04;;;;;;;1.90;1.10;;;28.30;53.30;;;;;;5042999;28;20111;-71
2023/04/30 15:29:29;;;;;;;2.40;1.40;;;28.60;54.10;;;;;;5042278;28;20093;-71
2023/04/30 15:31:55;;;;;;;2.20;1.17;;;28.40;52.50;;;;;;5043521;28;20370;-72
2023/04/30 15:34:21;;;;;;;2.00;1.23;;;27.50;53.40;;;;;;5042737;28;20040;-72
2023/04/30 15:36:48;;;;;;;2.97;1.60;;;27.40;54.00;;;;;;5043620;28;20013;-74
2023/04/30 15:39:14;;;;;;;2.70;1.20;;;27.70;53.70;;;;;;5043111;28;20041;-71
2023/04/30 15:41:40;;;;;;;2.45;1.35;;;27.40;53.40;;;;;;5043626;28;20029;-73
2023/04/30 15:44:06;;;;;;;3.10;1.30;;;27.70;53.40;;;;;;5042808;28;20060;-72
2023/04/30 15:46:32;;;;;;;3.05;1.40;;;28.10;53.00;;;;;;5043014;28;20029;-73
2023/04/30 15:48:58;;;;;;;2.47;1.30;;;27.90;53.20;;;;;;5043169;28;20048;-70
2023/04/30 15:51:24;;;;;;;2.63;1.48;;;26.60;53.70;;;;;;5042894;28;20037;-71
2023/04/30 15:53:49;;;;;;;2.22;1.45;;;25.50;55.10;;;;;;5043250;28;20033;-72
2023/04/30 15:56:17;;;;;;;3.55;1.50;;;24.50;56.60;;;;;;5042805;28;20215;-73
2023/04/30 15:58:43;;;;;;;1.85;1.20;;;24.20;57.40;;;;;;5043127;28;20048;-71
2023/04/30 16:01:08;;;;;;;3.97;1.60;;;24.00;57.70;;;;;;5042761;28;20013;-71
2023/04/30 16:03:34;;;;;;;5.07;1.48;;;23.60;57.60;;;;;;5042169;28;20026;-72
2023/04/30 16:06:01;;;;;;;2.83;1.50;;;23.40;59.10;;;;;;5043676;28;20029;-70
2023/04/30 16:08:27;;;;;;;2.40;1.48;;;23.30;58.40;;;;;;5043766;28;20060;-70
2023/04/30 16:10:53;;;;;;;3.20;1.70;;;23.20;58.50;;;;;;5043185;28;20230;-72
2023/04/30 16:13:19;;;;;;;3.38;1.77;;;23.00;58.50;;;;;;5041655;28;20042;-71
2023/04/30 16:15:46;;;;;;;2.50;1.60;;;23.00;58.80;;;;;;5042856;28;20128;-71
2023/04/30 16:18:11;;;;;;;2.47;1.67;;;23.10;59.20;;;;;;5041784;28;20073;-71
2023/04/30 16:20:40;;;;;;;2.78;1.65;;;23.10;58.60;;;;;;5043095;28;20056;-72
2023/04/30 16:23:05;;;;;;;4.10;1.88;;;23.00;59.00;;;;;;5042510;28;20041;-72
2023/04/30 16:25:31;;;;;;;2.38;1.35;;;22.70;59.00;;;;;;5042543;28;20055;-73
2023/04/30 16:27:57;;;;;;;3.92;1.77;;;22.50;60.00;;;;;;5042968;28;20225;-71
2023/04/30 16:30:23;;;;;;;3.45;1.58;;;22.60;60.70;;;;;;5041126;28;20072;-72
2023/04/30 16:32:48;;;;;;;3.10;1.70;;;22.70;60.20;;;;;;5042684;28;20034;-72
2023/04/30 16:35:14;;;;;;;3.75;1.60;;;22.60;60.50;;;;;;5042001;28;20079;-73
2023/04/30 16:37:40;;;;;;;3.38;1.75;;;22.50;61.50;;;;;;5042899;28;20025;-72
2023/04/30 16:40:07;;;;;;;4.18;1.80;;;22.00;60.50;;;;;;5042880;28;20025;-72
2023/04/30 16:42:33;;;;;;;2.75;1.50;;;21.40;61.10;;;;;;5046557;28;20025;-72
2023/04/30 16:45:00;;;;;;;2.75;1.63;;;20.90;62.70;;;;;;5046590;28;20330;-72
2023/04/30 16:47:26;;;;;;;3.08;1.63;;;21.00;63.20;;;;;;5045870;28;20052;-72
2023/04/30 16:49:51;;;;;;;3.30;1.88;;;20.90;63.50;;;;;;5046759;28;20061;-72
2023/04/30 16:52:18;;;;;;;2.95;1.70;;;21.00;63.30;;;;;;5045869;28;20056;-72
2023/04/30 16:54:43;;;;;;;3.20;2.05;;;20.80;62.80;;;;;;5046269;28;20338;-73
2023/04/30 16:57:09;;;;;;;3.40;1.73;;;20.70;63.80;;;;;;5045619;28;20053;-71
2023/04/30 16:59:35;;;;;;;3.28;1.80;;;20.60;63.70;;;;;;5046111;28;20323;-71
2023/04/30 17:02:01;;;;;;;2.58;1.33;;;20.40;64.30;;;;;;5045313;28;20013;-72
2023/04/30 17:04:27;;;;;;;2.00;1.35;;;20.20;66.30;;;;;;5046093;28;20307;-72
2023/04/30 17:06:52;;;;;;;2.60;1.60;;;20.10;65.30;;;;;;5046148;28;20041;-71
2023/04/30 17:09:18;;;;;;;3.63;1.70;;;20.00;65.50;;;;;;5045330;28;20100;-72
2023/04/30 17:11:45;;;;;;;3.42;1.77;;;20.00;65.40;;;;;;5046261;28;20033;-71
2023/04/30 17:14:11;;;;;;;3.15;1.58;;;19.80;66.00;;;;;;5045584;28;20086;-71
2023/04/30 17:16:37;;;;;;;3.28;2.00;;;19.80;66.90;;;;;;5046161;28;20033;-73
2023/04/30 17:19:03;;;;;;;3.33;1.77;;;19.60;66.50;;;;;;5045530;28;20385;-73
2023/04/30 17:21:29;;;;;;;3.33;2.00;;;19.50;67.20;;;;;;5045635;28;20029;-71
2023/04/30 17:23:55;;;;;;;2.88;1.60;;;19.50;67.20;;;;;;5045740;28;20030;-71
2023/04/30 17:26:22;;;;;;;2.33;1.58;;;19.40;67.60;;;;;;5045516;28;20021;-71
2023/04/30 17:28:48;;;;;;;3.40;2.05;;;19.20;67.40;;;;;;5043841;28;20057;-72
2023/04/30 17:31:14;;;;;;;3.60;1.77;;;19.10;67.80;;;;;;5045204;28;20223;-71
2023/04/30 17:33:40;;;;;;;3.55;2.00;;;19.00;69.10;;;;;;5049738;28;20049;-71
2023/04/30 17:36:07;;;;;;;4.07;2.20;;;19.00;68.40;;;;;;5045675;28;20026;-71
2023/04/30 17:38:33;;;;;;;3.97;2.05;;;18.80;70.50;;;;;;5045642;28;20025;-72
2023/04/30 17:40:59;;;;;;;3.42;1.80;;;18.70;70.30;;;;;;5045315;28;20066;-72
2023/04/30 17:43:25;;;;;;;4.45;1.90;;;18.50;70.30;;;;;;5044662;28;20096;-71
2023/04/30 17:45:52;;;;;;;3.67;2.00;;;18.50;70.10;;;;;;5045547;28;20026;-69
2023/04/30 17:48:18;;;;;;;4.57;2.20;;;18.30;71.00;;;;;;5045020;28;20045;-70